createdAt,value
2023-05-13T00:01:17.837Z,25.20
2023-05-13T00:03:46.118Z,25.20
2023-05-13T00:06:13.189Z,25.20
2023-05-13T00:08:40.163Z,25.20
2023-05-13T00:11:07.946Z,25.20
2023-05-13T00:13:35.054Z,25.20
2023-05-13T00:16:03.579Z,25.20
2023-05-13T00:18:30.813Z,25.20
2023-05-13T00:20:57.839Z,25.20
2023-05-13T00:23:24.853Z,25.20
2023-05-13T00:25:51.846Z,25.20
2023-05-13T00:28:19.600Z,25.20
2023-05-13T00:30:46.734Z,25.20
2023-05-13T00:33:13.838Z,25.20
2023-05-13T00:35:40.867Z,25.10
2023-05-13T00:38:08.584Z,25.10
2023-05-13T00:40:43.345Z,25.20
2023-05-13T00:43:10.635Z,25.10
2023-05-13T00:45:38.607Z,25.10
2023-05-13T00:48:09.342Z,25.10
2023-05-13T00:50:36.603Z,25.20
2023-05-13T00:53:04.799Z,25.10
2023-05-13T00:55:31.985Z,25.10
2023-05-13T00:57:59.014Z,25.10
2023-05-13T01:00:26.300Z,25.10
2023-05-13T01:05:56.899Z,24.90
2023-05-13T01:08:46.649Z,25.10
2023-05-13T01:11:29.780Z,25.10
2023-05-13T01:14:09.951Z,25.10
2023-05-13T01:16:53.062Z,25.10
2023-05-13T01:19:52.871Z,25.10
2023-05-13T01:22:19.779Z,25.10
2023-05-13T01:24:46.758Z,25.00
2023-05-13T01:27:14.332Z,25.00
2023-05-13T01:29:41.385Z,25.00
2023-05-13T01:32:11.218Z,25.00
2023-05-13T01:34:41.544Z,25.00
2023-05-13T01:37:08.622Z,25.00
2023-05-13T01:39:38.415Z,25.00
2023-05-13T01:42:05.620Z,26.50
2023-05-13T01:44:32.641Z,25.00
2023-05-13T01:46:59.619Z,25.00
2023-05-13T01:49:27.030Z,25.00
2023-05-13T01:51:53.926Z,25.00
2023-05-13T01:54:20.850Z,24.90
2023-05-13T01:56:47.930Z,25.00
2023-05-13T01:59:14.832Z,25.00
2023-05-13T02:01:41.794Z,25.00
2023-05-13T02:04:08.695Z,25.00
2023-05-13T02:06:36.208Z,24.90
2023-05-13T02:09:03.244Z,24.90
2023-05-13T02:11:30.249Z,24.90
2023-05-13T02:13:57.176Z,24.90
2023-05-13T02:16:24.144Z,24.90
2023-05-13T02:18:51.492Z,24.90
2023-05-13T02:21:18.489Z,24.90
2023-05-13T02:23:45.381Z,24.90
2023-05-13T02:26:12.323Z,24.90
2023-05-13T02:28:39.260Z,24.90
2023-05-13T02:31:06.755Z,24.90
2023-05-13T02:33:33.649Z,24.90
2023-05-13T02:36:00.525Z,24.90
2023-05-13T02:38:27.441Z,24.90
2023-05-13T02:40:54.428Z,24.90
2023-05-13T02:43:21.708Z,24.90
2023-05-13T02:45:48.564Z,24.90
2023-05-13T02:48:16.064Z,24.90
2023-05-13T02:50:43.007Z,24.90
2023-05-13T02:53:09.917Z,24.90
2023-05-13T02:55:36.858Z,24.80
2023-05-13T02:58:04.528Z,24.80
2023-05-13T03:00:31.403Z,24.80
2023-05-13T03:02:58.568Z,24.80
2023-05-13T03:05:27.185Z,24.80
2023-05-13T03:07:55.553Z,24.80
2023-05-13T03:10:22.640Z,24.80
2023-05-13T03:12:49.998Z,24.80
2023-05-13T03:15:17.103Z,24.80
2023-05-13T03:17:44.524Z,24.80
2023-05-13T03:20:12.347Z,24.70
2023-05-13T03:22:39.275Z,24.80
2023-05-13T03:25:07.368Z,24.80
2023-05-13T03:27:35.878Z,24.80
2023-05-13T03:30:02.826Z,24.80
2023-05-13T03:32:30.902Z,24.80
2023-05-13T03:35:00.779Z,24.70
2023-05-13T03:37:27.813Z,24.80
2023-05-13T03:39:54.734Z,24.70
2023-05-13T03:42:23.299Z,24.70
2023-05-13T03:44:51.254Z,24.70
2023-05-13T03:47:18.155Z,24.70
2023-05-13T03:49:45.273Z,24.70
2023-05-13T03:52:12.197Z,24.70
2023-05-13T03:54:39.216Z,24.70
2023-05-13T03:57:07.590Z,24.70
2023-05-13T03:59:34.698Z,24.70
2023-05-13T04:02:01.638Z,24.70
2023-05-13T04:04:28.700Z,24.70
2023-05-13T04:06:55.671Z,24.70
2023-05-13T04:09:22.641Z,24.70
2023-05-13T04:11:49.980Z,24.70
2023-05-13T04:14:16.904Z,24.60
2023-05-13T04:16:43.838Z,24.60
2023-05-13T04:19:10.808Z,24.70
2023-05-13T04:21:37.855Z,24.70
2023-05-13T04:24:05.346Z,24.70
2023-05-13T04:26:32.270Z,24.70
2023-05-13T04:28:59.245Z,24.60
2023-05-13T04:31:26.182Z,24.70
2023-05-13T04:33:53.148Z,24.60
2023-05-13T04:36:20.033Z,24.60
2023-05-13T04:38:46.939Z,24.60
2023-05-13T04:41:13.791Z,24.60
2023-05-13T04:43:40.629Z,24.60
2023-05-13T04:46:07.549Z,24.60
2023-05-13T04:48:34.487Z,24.60
2023-05-13T04:51:01.990Z,24.60
2023-05-13T04:53:29.394Z,24.60
2023-05-13T04:56:00.717Z,24.60
2023-05-13T04:58:28.669Z,24.60
2023-05-13T05:00:55.565Z,24.60
2023-05-13T05:03:22.508Z,24.60
2023-05-13T05:05:49.424Z,24.60
2023-05-13T05:08:17.119Z,24.60
2023-05-13T05:10:44.057Z,24.60
2023-05-13T05:13:11.168Z,24.60
2023-05-13T05:15:38.034Z,24.60
2023-05-13T05:18:06.592Z,24.60
2023-05-13T05:20:33.576Z,24.60
2023-05-13T05:23:00.486Z,24.60
2023-05-13T05:25:27.413Z,24.60
2023-05-13T05:27:54.536Z,24.60
2023-05-13T05:30:21.972Z,24.60
2023-05-13T05:32:49.156Z,24.60
2023-05-13T05:35:17.827Z,24.60
2023-05-13T05:37:44.705Z,24.60
2023-05-13T05:40:12.284Z,24.60
2023-05-13T05:42:39.251Z,24.60
2023-05-13T05:45:07.104Z,24.60
2023-05-13T05:47:34.485Z,24.60
2023-05-13T05:50:01.459Z,24.60
2023-05-13T05:52:28.349Z,24.60
2023-05-13T05:54:55.288Z,24.60
2023-05-13T05:57:22.322Z,24.60
2023-05-13T05:59:49.306Z,24.60
2023-05-13T06:02:16.222Z,24.70
2023-05-13T06:04:43.444Z,24.60
2023-05-13T06:07:10.626Z,24.60
2023-05-13T06:09:37.700Z,24.60
2023-05-13T06:12:05.271Z,24.70
2023-05-13T06:14:32.154Z,24.60
2023-05-13T06:16:59.054Z,24.70
2023-05-13T06:19:25.900Z,24.70
2023-05-13T06:21:52.772Z,24.70
2023-05-13T06:24:19.613Z,24.70
2023-05-13T06:26:47.689Z,24.70
2023-05-13T06:29:14.759Z,24.70
2023-05-13T06:31:41.922Z,24.70
2023-05-13T06:34:08.997Z,24.70
2023-05-13T06:36:35.977Z,24.70
2023-05-13T06:39:04.092Z,24.70
2023-05-13T06:41:31.242Z,24.70
2023-05-13T06:43:58.167Z,24.70
2023-05-13T06:46:25.132Z,24.70
2023-05-13T06:48:53.780Z,24.70
2023-05-13T06:51:21.937Z,24.70
2023-05-13T06:53:48.811Z,24.70
2023-05-13T06:56:15.666Z,24.80
2023-05-13T06:58:42.932Z,24.80
2023-05-13T07:01:09.868Z,24.80
2023-05-13T07:03:37.891Z,24.80
2023-05-13T07:06:05.220Z,24.90
2023-05-13T07:08:35.391Z,24.80
2023-05-13T07:11:02.761Z,24.80
2023-05-13T07:13:30.934Z,24.80
2023-05-13T07:15:57.965Z,24.90
2023-05-13T07:18:24.997Z,24.90
2023-05-13T07:20:52.564Z,24.90
2023-05-13T07:23:19.418Z,24.90
2023-05-13T07:25:46.265Z,24.90
2023-05-13T07:28:13.141Z,24.90
2023-05-13T07:30:41.773Z,24.90
2023-05-13T07:33:08.829Z,25.00
2023-05-13T07:35:35.819Z,25.00
2023-05-13T07:38:02.721Z,25.00
2023-05-13T07:40:29.650Z,25.00
2023-05-13T07:42:56.584Z,25.00
2023-05-13T07:45:23.739Z,25.10
2023-05-13T07:47:51.399Z,25.10
2023-05-13T07:50:18.366Z,25.10
2023-05-13T07:52:48.950Z,25.10
2023-05-13T07:55:16.610Z,25.10
2023-05-13T07:57:43.591Z,25.20
2023-05-13T08:00:11.168Z,25.20
2023-05-13T08:02:43.798Z,25.20
2023-05-13T08:05:12.426Z,25.20
2023-05-13T08:07:39.453Z,25.20
2023-05-13T08:10:07.075Z,25.20
2023-05-13T08:12:34.032Z,25.30
2023-05-13T08:15:03.972Z,25.30
2023-05-13T08:17:30.916Z,25.30
2023-05-13T08:19:59.411Z,25.30
2023-05-13T08:22:27.546Z,25.30
2023-05-13T08:24:54.508Z,25.30
2023-05-13T08:27:21.354Z,25.30
2023-05-13T08:29:48.328Z,25.40
2023-05-13T08:32:15.246Z,25.40
2023-05-13T08:34:42.286Z,25.40
2023-05-13T08:37:09.310Z,25.40
2023-05-13T08:39:36.271Z,25.50
2023-05-13T08:42:04.543Z,25.50
2023-05-13T08:44:34.762Z,25.50
2023-05-13T08:47:36.970Z,25.50
2023-05-13T08:50:04.668Z,25.50
2023-05-13T08:52:32.036Z,25.50
2023-05-13T08:55:01.239Z,25.50
2023-05-13T08:57:28.588Z,25.60
2023-05-13T08:59:55.558Z,25.60
2023-05-13T09:02:23.284Z,25.60
2023-05-13T09:04:56.077Z,25.60
2023-05-13T09:07:23.233Z,25.60
2023-05-13T09:09:50.526Z,25.60
2023-05-13T09:12:52.579Z,25.60
2023-05-13T09:15:23.351Z,25.70
2023-05-13T09:17:54.753Z,25.70
2023-05-13T09:20:23.036Z,25.70
2023-05-13T09:22:57.430Z,25.70
2023-05-13T09:25:26.081Z,25.70
2023-05-13T09:28:01.712Z,25.70
2023-05-13T09:30:43.784Z,25.80
2023-05-13T09:33:16.647Z,25.80
2023-05-13T09:35:52.836Z,25.80
2023-05-13T09:38:26.350Z,25.80
2023-05-13T09:41:03.347Z,25.80
2023-05-13T09:43:34.321Z,25.80
2023-05-13T09:46:05.884Z,25.80
2023-05-13T09:48:34.504Z,25.80
2023-05-13T09:51:01.746Z,25.90
2023-05-13T09:53:29.149Z,25.90
2023-05-13T09:55:59.937Z,25.90
2023-05-13T09:58:30.664Z,25.90
2023-05-13T10:00:58.535Z,25.90
2023-05-13T10:03:26.043Z,26.00
2023-05-13T10:05:53.826Z,26.00
2023-05-13T10:08:22.557Z,26.00
2023-05-13T10:10:55.647Z,26.00
2023-05-13T10:13:26.487Z,26.10
2023-05-13T10:15:56.955Z,26.10
2023-05-13T10:18:24.450Z,26.10
2023-05-13T10:20:54.963Z,26.10
2023-05-13T10:23:24.620Z,26.20
2023-05-13T10:25:54.309Z,26.20
2023-05-13T10:28:21.586Z,26.20
2023-05-13T10:30:52.053Z,26.20
2023-05-13T10:33:20.547Z,26.30
2023-05-13T10:36:26.714Z,26.30
2023-05-13T10:39:35.771Z,26.30
2023-05-13T10:42:43.105Z,26.40
2023-05-13T10:45:11.111Z,26.40
2023-05-13T10:47:39.345Z,26.50
2023-05-13T10:50:25.314Z,26.60
2023-05-13T10:52:58.233Z,26.70
2023-05-13T10:55:28.743Z,26.70
2023-05-13T10:58:13.607Z,26.80
2023-05-13T11:00:45.299Z,26.90
2023-05-13T11:03:19.400Z,26.90
2023-05-13T11:06:14.631Z,27.00
2023-05-13T11:08:44.281Z,27.00
2023-05-13T11:11:29.579Z,27.10
2023-05-13T11:14:09.435Z,27.20
2023-05-13T11:16:38.071Z,27.20
2023-05-13T11:19:19.012Z,27.30
2023-05-13T11:21:53.186Z,27.40
2023-05-13T11:24:22.451Z,27.50
2023-05-13T11:26:58.884Z,27.50
2023-05-13T11:29:36.143Z,27.60
2023-05-13T11:32:06.221Z,27.70
2023-05-13T11:34:34.524Z,27.80
2023-05-13T11:37:04.439Z,27.90
2023-05-13T11:39:32.897Z,27.90
2023-05-13T11:42:05.298Z,28.00
2023-05-13T11:44:34.887Z,28.10
2023-05-13T11:47:08.567Z,28.20
2023-05-13T11:49:39.597Z,28.30
2023-05-13T11:52:10.025Z,28.40
2023-05-13T11:54:50.092Z,28.60
2023-05-13T11:57:27.680Z,28.80
2023-05-13T12:00:06.888Z,28.90
2023-05-13T12:02:40.504Z,29.10
2023-05-13T12:05:11.287Z,29.30
2023-05-13T12:07:39.642Z,29.50
2023-05-13T12:10:08.145Z,29.60
2023-05-13T12:12:38.623Z,29.80
2023-05-13T12:15:11.657Z,30.00
2023-05-13T12:17:39.170Z,30.10
2023-05-13T12:20:13.143Z,30.20
2023-05-13T12:22:43.150Z,30.20
2023-05-13T12:25:35.342Z,30.20
2023-05-13T12:28:23.897Z,30.20
2023-05-13T12:30:56.678Z,30.10
2023-05-13T12:33:41.882Z,30.10
2023-05-13T12:36:27.979Z,30.10
2023-05-13T12:39:05.941Z,30.10
2023-05-13T12:41:40.004Z,30.10
2023-05-13T12:44:15.005Z,30.10
2023-05-13T12:47:01.758Z,30.20
2023-05-13T12:49:28.883Z,30.40
2023-05-13T12:51:56.815Z,30.50
2023-05-13T12:54:24.645Z,30.70
2023-05-13T12:56:52.237Z,30.80
2023-05-13T12:59:19.210Z,31.00
2023-05-13T13:01:49.641Z,31.10
2023-05-13T13:04:17.102Z,31.20
2023-05-13T13:06:44.379Z,31.20
2023-05-13T13:09:11.213Z,31.20
2023-05-13T13:11:39.336Z,31.20
2023-05-13T13:14:06.253Z,31.20
2023-05-13T13:16:33.409Z,31.00
2023-05-13T13:19:01.849Z,30.90
2023-05-13T13:21:29.030Z,30.80
2023-05-13T13:23:56.056Z,30.70
2023-05-13T13:26:23.348Z,30.60
2023-05-13T13:28:50.330Z,30.40
2023-05-13T13:31:17.414Z,30.30
2023-05-13T13:33:44.577Z,30.20
2023-05-13T13:36:11.571Z,30.00
2023-05-13T13:38:38.518Z,29.90
2023-05-13T13:41:06.247Z,29.70
2023-05-13T13:43:33.315Z,29.60
2023-05-13T13:46:00.326Z,29.50
2023-05-13T13:48:27.377Z,29.40
2023-05-13T13:50:55.010Z,29.40
2023-05-13T13:53:22.380Z,29.30
2023-05-13T13:55:49.434Z,29.20
2023-05-13T13:58:16.319Z,29.10
2023-05-13T14:00:43.418Z,29.00
2023-05-13T14:03:10.414Z,28.90
2023-05-13T14:05:37.391Z,28.80
2023-05-13T14:08:04.480Z,28.80
2023-05-13T14:10:31.394Z,28.70
2023-05-13T14:12:58.448Z,28.60
2023-05-13T14:15:28.717Z,28.60
2023-05-13T14:17:56.279Z,28.50
2023-05-13T14:20:24.952Z,28.40
2023-05-13T14:22:51.942Z,28.30
2023-05-13T14:25:18.853Z,28.30
2023-05-13T14:27:45.844Z,28.20
2023-05-13T14:30:13.111Z,28.10
2023-05-13T14:32:47.237Z,28.10
2023-05-13T14:35:16.488Z,28.00
2023-05-13T14:37:43.340Z,28.00
2023-05-13T14:40:10.669Z,28.00
2023-05-13T14:42:38.763Z,28.00
2023-05-13T14:45:06.601Z,27.90
2023-05-13T14:47:33.863Z,27.90
2023-05-13T14:50:02.071Z,27.90
2023-05-13T14:52:29.588Z,27.80
2023-05-13T14:54:56.635Z,27.80
2023-05-13T14:57:23.696Z,27.80
2023-05-13T14:59:50.636Z,27.80
2023-05-13T15:02:17.747Z,27.70
2023-05-13T15:04:44.780Z,27.70
2023-05-13T15:07:11.829Z,27.60
2023-05-13T15:09:38.824Z,27.70
2023-05-13T15:12:06.694Z,27.60
2023-05-13T15:14:33.572Z,27.60
2023-05-13T15:17:00.647Z,27.60
2023-05-13T15:19:27.633Z,27.60
2023-05-13T15:21:54.540Z,28.50
2023-05-13T15:24:21.446Z,27.50
2023-05-13T15:26:50.602Z,27.50
2023-05-13T15:29:17.663Z,27.50
2023-05-13T15:31:44.582Z,27.50
2023-05-13T15:34:11.518Z,27.40
2023-05-13T15:36:38.496Z,27.40
2023-05-13T15:39:05.375Z,27.40
2023-05-13T15:41:32.311Z,27.40
2023-05-13T15:43:59.191Z,27.40
2023-05-13T15:46:26.280Z,27.40
2023-05-13T15:48:53.493Z,27.30
2023-05-13T15:51:20.740Z,27.40
2023-05-13T15:53:47.606Z,27.40
2023-05-13T15:56:14.541Z,27.40
2023-05-13T15:58:41.737Z,27.40
2023-05-13T16:01:08.690Z,27.40
2023-05-13T16:03:38.466Z,27.40
2023-05-13T16:06:06.024Z,27.40
2023-05-13T16:08:33.378Z,27.30
2023-05-13T16:11:00.456Z,27.40
2023-05-13T16:13:27.431Z,27.40
2023-05-13T16:15:54.527Z,27.30
2023-05-13T16:18:22.046Z,27.40
2023-05-13T16:20:49.199Z,27.50
2023-05-13T16:23:16.110Z,27.30
2023-05-13T16:25:44.008Z,27.30
2023-05-13T16:28:11.317Z,27.30
2023-05-13T16:30:39.437Z,27.40
2023-05-13T16:33:07.911Z,27.30
2023-05-13T16:35:36.392Z,27.30
2023-05-13T16:38:03.525Z,27.30
2023-05-13T16:40:30.416Z,27.30
2023-05-13T16:42:59.826Z,27.30
2023-05-13T16:45:29.044Z,27.30
2023-05-13T16:47:57.055Z,27.30
2023-05-13T16:50:24.489Z,27.30
2023-05-13T16:52:51.846Z,27.30
2023-05-13T16:55:18.908Z,27.30
2023-05-13T16:57:46.956Z,27.30
2023-05-13T17:00:16.086Z,27.30
2023-05-13T17:02:43.336Z,27.30
2023-05-13T17:05:10.680Z,27.30
2023-05-13T17:07:37.951Z,27.30
2023-05-13T17:10:06.008Z,27.20
2023-05-13T17:12:33.512Z,27.20
2023-05-13T17:15:01.260Z,27.20
2023-05-13T17:17:28.259Z,27.20
2023-05-13T17:19:55.570Z,27.20
2023-05-13T17:22:22.661Z,27.20
2023-05-13T17:24:49.628Z,27.10
2023-05-13T17:27:16.512Z,27.20
2023-05-13T17:29:43.834Z,27.20
2023-05-13T17:32:11.521Z,27.10
2023-05-13T17:34:38.406Z,27.10
2023-05-13T17:37:06.097Z,27.10
2023-05-13T17:39:33.066Z,27.10
2023-05-13T17:42:00.010Z,27.10
2023-05-13T17:44:27.015Z,27.10
2023-05-13T17:46:54.762Z,27.00
2023-05-13T17:49:21.706Z,27.00
2023-05-13T17:51:48.623Z,27.00
2023-05-13T17:54:15.582Z,27.00
2023-05-13T17:56:42.544Z,27.00
2023-05-13T17:59:09.932Z,27.00
2023-05-13T18:01:36.835Z,27.00
2023-05-13T18:04:05.209Z,26.90
2023-05-13T18:06:32.244Z,26.90
2023-05-13T18:08:59.209Z,26.90
2023-05-13T18:11:26.202Z,26.90
2023-05-13T18:13:53.617Z,26.90
2023-05-13T18:16:21.056Z,26.90
2023-05-13T18:18:48.769Z,26.90
2023-05-13T18:21:16.040Z,26.80
2023-05-13T18:23:45.807Z,26.80
2023-05-13T18:26:12.745Z,26.80
2023-05-13T18:28:42.444Z,26.80
2023-05-13T18:31:09.378Z,26.80
2023-05-13T18:33:36.267Z,26.80
2023-05-13T18:36:03.337Z,26.80
2023-05-13T18:38:30.250Z,26.80
2023-05-13T18:41:01.553Z,26.80
2023-05-13T18:43:29.567Z,26.80
2023-05-13T18:45:57.751Z,26.70
2023-05-13T18:48:25.201Z,26.70
2023-05-13T18:50:53.168Z,26.70
2023-05-13T18:53:20.373Z,26.70
2023-05-13T18:55:47.349Z,26.70
2023-05-13T18:58:14.316Z,26.70
2023-05-13T19:00:41.804Z,26.60
2023-05-13T19:03:09.035Z,26.60
2023-05-13T19:05:36.154Z,26.60
2023-05-13T19:08:04.735Z,26.60
2023-05-13T19:10:34.674Z,26.60
2023-05-13T19:13:06.918Z,26.50
2023-05-13T19:15:34.219Z,26.50
2023-05-13T19:18:01.540Z,26.50
2023-05-13T19:20:29.936Z,26.50
2023-05-13T19:22:57.194Z,26.50
2023-05-13T19:25:24.231Z,26.40
2023-05-13T19:27:51.293Z,26.40
2023-05-13T19:30:18.305Z,26.40
2023-05-13T19:32:45.317Z,26.40
2023-05-13T19:35:12.251Z,26.30
2023-05-13T19:37:39.241Z,26.40
2023-05-13T19:40:07.097Z,26.30
2023-05-13T19:42:33.995Z,26.30
2023-05-13T19:45:01.077Z,26.30
2023-05-13T19:47:28.112Z,26.30
2023-05-13T19:49:55.244Z,26.30
2023-05-13T19:52:22.129Z,26.20
2023-05-13T19:54:49.866Z,26.20
2023-05-13T19:57:17.493Z,26.20
2023-05-13T19:59:44.450Z,26.20
2023-05-13T20:02:11.505Z,26.20
2023-05-13T20:04:38.625Z,26.20
2023-05-13T20:07:06.549Z,26.20
2023-05-13T20:09:34.923Z,26.20
2023-05-13T20:12:03.636Z,26.10
2023-05-13T20:14:58.935Z,26.20
2023-05-13T20:17:27.341Z,26.10
2023-05-13T20:19:56.018Z,26.10
2023-05-13T20:22:23.253Z,26.10
2023-05-13T20:24:51.658Z,26.10
2023-05-13T20:27:19.272Z,26.00
2023-05-13T20:29:48.041Z,26.00
2023-05-13T20:32:24.450Z,26.00
2023-05-13T20:34:54.733Z,26.00
2023-05-13T20:37:23.904Z,26.00
2023-05-13T20:39:51.886Z,26.00
2023-05-13T20:42:21.518Z,26.00
2023-05-13T20:44:48.752Z,26.00
2023-05-13T20:47:15.939Z,26.00
2023-05-13T20:49:45.703Z,25.90
2023-05-13T20:52:12.702Z,25.90
2023-05-13T20:54:39.577Z,25.90
2023-05-13T20:57:06.672Z,25.90
2023-05-13T20:59:33.638Z,25.90
2023-05-13T21:02:00.658Z,25.90
2023-05-13T21:04:27.914Z,25.90
2023-05-13T21:06:54.835Z,25.80
2023-05-13T21:09:21.701Z,25.80
2023-05-13T21:11:51.314Z,25.80
2023-05-13T21:14:18.258Z,25.80
2023-05-13T21:16:45.737Z,25.80
2023-05-13T21:19:23.886Z,25.80
2023-05-13T21:21:51.311Z,25.80
2023-05-13T21:24:18.941Z,25.80
2023-05-13T21:26:47.097Z,25.80
2023-05-13T21:29:13.976Z,25.80
2023-05-13T21:31:41.154Z,25.80
2023-05-13T21:34:08.330Z,25.80
2023-05-13T21:36:38.793Z,25.70
2023-05-13T21:39:10.516Z,25.70
2023-05-13T21:41:37.867Z,25.70
2023-05-13T21:44:05.207Z,25.70
2023-05-13T21:46:32.478Z,25.70
2023-05-13T21:49:00.447Z,25.70
2023-05-13T21:51:27.816Z,25.70
2023-05-13T21:53:55.035Z,25.70
2023-05-13T21:56:22.012Z,25.70
2023-05-13T21:58:49.920Z,25.70
2023-05-13T22:01:17.054Z,25.60
2023-05-13T22:03:44.083Z,25.60
2023-05-13T22:06:11.029Z,25.70
2023-05-13T22:08:37.922Z,25.60
2023-05-13T22:11:04.943Z,25.60
2023-05-13T22:13:32.059Z,25.60
2023-05-13T22:16:00.553Z,25.60
2023-05-13T22:18:30.949Z,25.60
2023-05-13T22:20:59.525Z,25.60
2023-05-13T22:23:27.383Z,25.60
2023-05-13T22:25:54.375Z,25.60
2023-05-13T22:28:21.285Z,25.60
2023-05-13T22:30:51.546Z,25.60
2023-05-13T22:33:19.239Z,25.60
2023-05-13T22:35:46.208Z,25.60
2023-05-13T22:38:13.725Z,25.60
2023-05-13T22:40:40.833Z,25.60
2023-05-13T22:43:07.790Z,25.60
2023-05-13T22:45:36.703Z,25.50
2023-05-13T22:48:03.858Z,25.50
2023-05-13T22:50:30.867Z,25.50
2023-05-13T22:52:57.948Z,25.50
2023-05-13T22:55:24.873Z,25.50
2023-05-13T22:57:51.721Z,25.50
2023-05-13T23:00:18.642Z,25.50
2023-05-13T23:02:45.887Z,25.50
2023-05-13T23:05:12.966Z,25.50
2023-05-13T23:07:39.902Z,25.40
2023-05-13T23:10:07.511Z,25.40
2023-05-13T23:12:34.558Z,25.40
2023-05-13T23:15:01.533Z,25.40
2023-05-13T23:17:28.468Z,25.40
2023-05-13T23:19:56.680Z,25.40
2023-05-13T23:22:23.635Z,25.40
2023-05-13T23:24:50.620Z,25.40
2023-05-13T23:27:17.533Z,25.40
2023-05-13T23:29:44.465Z,25.40
2023-05-13T23:32:11.387Z,25.40
2023-05-13T23:34:38.325Z,25.40
2023-05-13T23:37:05.782Z,25.40
2023-05-13T23:39:32.704Z,25.40
2023-05-13T23:41:59.558Z,25.40
2023-05-13T23:44:27.079Z,25.30
2023-05-13T23:46:53.970Z,25.40
2023-05-13T23:49:20.953Z,25.30
2023-05-13T23:51:47.856Z,25.30
2023-05-13T23:54:14.742Z,25.40
2023-05-13T23:56:41.753Z,25.30
2023-05-13T23:59:08.653Z,25.30
